Time;durP1;ratioP1;P1;durP2;ratioP2;P2;SDS_P1;SDS_P2;PMS_P1;PMS_P2;Temp;Humidity;BMP_temperature;BMP_pressure;BME280_temperature;BME280_humidity;BME280_pressure;Samples;Min_cycle;Max_cycle;Signal;HPM_P1;HPM_P2
2021/04/10 00:01:38;;;;;;;9.32;4.05;;;8.50;90.00;;;;;;5046591;28;20033;-75
2021/04/10 00:04:05;;;;;;;9.75;3.35;;;8.50;90.20;;;;;;5047776;28;20033;-77
2021/04/10 00:06:31;;;;;;;8.18;3.60;;;8.40;90.30;;;;;;5047740;28;20033;-74
2021/04/10 00:08:57;;;;;;;6.45;3.20;;;8.40;90.40;;;;;;5046601;28;20029;-76
2021/04/10 00:11:22;;;;;;;8.25;3.42;;;8.40;90.50;;;;;;5046003;28;20476;-75
2021/04/10 00:13:49;;;;;;;5.78;3.38;;;8.30;90.70;;;;;;5049059;28;20086;-76
2021/04/10 00:16:14;;;;;;;8.73;3.00;;;8.30;90.70;;;;;;5043707;28;20024;-76
2021/04/10 00:18:40;;;;;;;5.60;3.08;;;8.30;90.80;;;;;;5048247;28;20534;-76
2021/04/10 00:21:05;;;;;;;8.90;3.60;;;8.20;90.90;;;;;;5052130;28;20028;-76
2021/04/10 00:23:31;;;;;;;7.13;3.30;;;8.20;91.00;;;;;;5050523;28;20041;-75
2021/04/10 00:25:58;;;;;;;8.27;4.35;;;8.10;91.20;;;;;;5048174;28;20369;-76
2021/04/10 00:28:24;;;;;;;5.13;2.97;;;8.10;91.30;;;;;;5047637;28;20045;-76
2021/04/10 00:30:49;;;;;;;6.32;3.38;;;8.10;91.50;;;;;;5030140;28;20044;-76
2021/04/10 00:33:15;;;;;;;7.10;3.80;;;8.10;91.50;;;;;;5050603;28;20029;-78
2021/04/10 00:35:40;;;;;;;6.25;3.50;;;8.00;91.60;;;;;;5048182;28;20053;-75
2021/04/10 00:38:06;;;;;;;6.85;3.53;;;8.00;91.90;;;;;;5047252;28;20408;-75
2021/04/10 00:40:31;;;;;;;6.18;3.20;;;8.00;92.00;;;;;;5029525;28;20428;-76
2021/04/10 00:42:58;;;;;;;7.45;3.38;;;7.90;92.00;;;;;;5045672;28;22476;-75
2021/04/10 00:45:24;;;;;;;8.35;3.58;;;7.90;92.20;;;;;;5048569;28;20511;-76
2021/04/10 00:47:49;;;;;;;5.30;3.30;;;7.90;92.20;;;;;;5047802;28;20056;-75
2021/04/10 00:50:15;;;;;;;7.93;3.35;;;7.90;92.30;;;;;;5045697;28;20059;-76
2021/04/10 00:52:42;;;;;;;6.00;3.10;;;7.80;92.40;;;;;;5047808;28;20040;-75
2021/04/10 00:55:10;;;;;;;5.65;3.15;;;7.70;92.60;;;;;;5046897;28;20384;-76
2021/04/10 00:57:36;;;;;;;5.82;3.22;;;7.70;92.80;;;;;;5048281;28;20085;-76
2021/04/10 01:00:06;;;;;;;5.85;2.75;;;7.60;92.90;;;;;;5049063;28;20033;-75
2021/04/10 01:02:32;;;;;;;7.03;3.38;;;7.60;92.90;;;;;;5029742;28;20420;-76
2021/04/10 01:04:57;;;;;;;6.28;3.33;;;7.60;93.10;;;;;;5045909;28;20036;-74
2021/04/10 01:07:23;;;;;;;5.90;3.25;;;7.60;93.20;;;;;;5048321;28;20882;-77
2021/04/10 01:09:50;;;;;;;8.05;3.60;;;7.50;93.30;;;;;;5048513;28;20041;-74
2021/04/10 01:12:32;;;;;;;6.70;3.00;;;7.50;93.50;;;;;;5046489;28;20110;-75
2021/04/10 01:15:13;;;;;;;6.07;3.00;;;7.50;93.50;;;;;;5047414;28;20079;-75
2021/04/10 01:17:47;;;;;;;7.05;3.10;;;7.50;93.60;;;;;;5047352;28;20029;-75
2021/04/10 01:20:44;;;;;;;7.53;3.10;;;7.50;94.00;;;;;;5048758;28;20162;-75
2021/04/10 01:23:45;;;;;;;6.22;2.65;;;7.40;94.10;;;;;;5044699;28;20032;-77
2021/04/10 01:26:30;;;;;;;5.75;3.08;;;7.40;94.10;;;;;;5042706;28;20096;-76
2021/04/10 01:29:01;;;;;;;5.18;2.60;;;7.30;94.40;;;;;;5048180;28;20064;-77
2021/04/10 01:31:36;;;;;;;4.93;2.67;;;7.30;94.50;;;;;;5042926;28;20095;-76
2021/04/10 01:34:06;;;;;;;6.70;2.97;;;7.20;94.70;;;;;;5045936;28;20028;-76
2021/04/10 01:36:33;;;;;;;;;;;7.20;94.80;;;;;;5045848;28;20021;-75
2021/04/10 01:39:01;;;;;;;7.03;2.80;;;7.30;94.80;;;;;;5048188;28;20011;-77
2021/04/10 01:41:28;;;;;;;5.55;2.88;;;7.30;94.80;;;;;;5047785;28;20036;-74
2021/04/10 01:43:54;;;;;;;4.43;2.50;;;7.40;94.80;;;;;;5048165;28;20033;-74
2021/04/10 01:46:24;;;;;;;4.72;2.92;;;7.40;94.90;;;;;;5048006;28;20067;-75
2021/04/10 01:48:50;;;;;;;5.20;3.03;;;7.40;94.80;;;;;;5046806;28;20045;-74
2021/04/10 01:51:17;;;;;;;5.45;2.60;;;7.50;94.80;;;;;;5039321;28;20056;-76
2021/04/10 01:53:44;;;;;;;5.30;2.80;;;7.50;94.70;;;;;;5047585;28;20476;-75
2021/04/10 01:56:11;;;;;;;7.07;3.10;;;7.60;94.60;;;;;;5047587;28;20067;-75
2021/04/10 01:58:37;;;;;;;5.78;2.88;;;7.60;94.60;;;;;;5045979;28;20098;-76
2021/04/10 02:01:05;;;;;;;6.05;2.55;;;7.70;94.60;;;;;;5048735;28;20040;-75
2021/04/10 02:03:31;;;;;;;6.55;2.90;;;7.70;94.70;;;;;;5048339;28;20120;-76
2021/04/10 02:05:57;;;;;;;8.23;2.85;;;7.70;94.70;;;;;;5046582;28;20013;-74
2021/04/10 02:08:25;;;;;;;8.52;3.60;;;7.70;94.70;;;;;;5047811;28;20032;-75
2021/04/10 02:10:53;;;;;;;5.63;3.17;;;7.70;94.70;;;;;;5046797;28;20029;-76
2021/04/10 02:13:19;;;;;;;6.35;2.88;;;7.70;94.70;;;;;;5047243;28;20025;-77
2021/04/10 02:15:46;;;;;;;5.43;2.95;;;7.80;94.90;;;;;;5047102;28;20480;-77
2021/04/10 02:18:13;;;;;;;4.90;2.90;;;7.80;94.90;;;;;;5046998;28;20105;-75
2021/04/10 02:20:39;;;;;;;4.70;2.58;;;7.80;94.80;;;;;;5047205;28;20040;-76
2021/04/10 02:23:04;;;;;;;6.05;2.70;;;7.90;94.80;;;;;;5045724;28;20041;-75
2021/04/10 02:25:31;;;;;;;6.82;3.28;;;7.80;94.80;;;;;;5048082;28;20082;-76
2021/04/10 02:27:56;;;;;;;6.82;2.85;;;7.90;94.80;;;;;;5050408;28;20032;-76
2021/04/10 02:30:23;;;;;;;7.60;2.80;;;7.90;94.90;;;;;;5051696;28;20029;-76
2021/04/10 02:32:56;;;;;;;6.95;3.15;;;8.00;94.90;;;;;;5056829;28;20115;-75
2021/04/10 02:35:52;;;;;;;5.47;3.08;;;8.00;95.00;;;;;;5051191;28;20024;-77
2021/04/10 02:38:19;;;;;;;6.35;2.88;;;8.00;95.10;;;;;;5051024;28;20162;-76
2021/04/10 02:40:52;;;;;;;6.93;3.47;;;8.00;95.00;;;;;;5052116;28;20021;-76
2021/04/10 02:43:24;;;;;;;6.10;2.88;;;8.10;94.90;;;;;;5033346;28;20041;-75
2021/04/10 02:45:53;;;;;;;6.22;3.70;;;8.10;95.00;;;;;;5051193;28;20017;-75
2021/04/10 02:48:24;;;;;;;8.02;3.42;;;8.10;95.00;;;;;;5049751;28;20386;-76
2021/04/10 02:50:54;;;;;;;5.95;2.90;;;8.10;94.90;;;;;;5049938;28;20037;-76
2021/04/10 02:53:21;;;;;;;7.13;3.42;;;8.20;95.10;;;;;;5044579;28;20052;-76
2021/04/10 02:55:52;;;;;;;6.10;3.00;;;8.20;94.90;;;;;;5046983;28;20030;-76
2021/04/10 02:58:20;;;;;;;8.13;3.30;;;8.20;95.00;;;;;;5051506;28;20072;-75
2021/04/10 03:00:47;;;;;;;7.07;3.08;;;8.20;94.90;;;;;;5050495;28;20033;-75
2021/04/10 03:03:14;;;;;;;5.45;2.83;;;8.30;95.20;;;;;;5044430;28;20133;-76
2021/04/10 03:05:42;;;;;;;4.90;2.90;;;8.20;95.20;;;;;;5032050;28;20172;-76
2021/04/10 03:08:08;;;;;;;5.93;3.70;;;8.20;95.40;;;;;;5049861;28;20389;-76
2021/04/10 03:10:34;;;;;;;6.85;3.30;;;8.20;95.10;;;;;;5050391;28;20030;-76
2021/04/10 03:13:01;;;;;;;7.82;2.95;;;8.10;95.20;;;;;;5050749;28;20025;-75
2021/04/10 03:15:27;;;;;;;8.45;3.17;;;8.10;95.30;;;;;;5048804;28;20163;-76
2021/04/10 03:17:54;;;;;;;6.35;3.28;;;8.10;95.30;;;;;;5051150;28;20124;-76
2021/04/10 03:20:21;;;;;;;7.05;3.03;;;8.10;95.40;;;;;;5048625;28;20036;-75
2021/04/10 03:22:48;;;;;;;5.70;3.10;;;8.10;95.40;;;;;;5049263;28;20501;-77
2021/04/10 03:25:16;;;;;;;5.93;2.50;;;8.10;95.40;;;;;;5050751;28;20031;-75
2021/04/10 03:27:42;;;;;;;6.25;3.55;;;8.00;95.60;;;;;;5051378;28;20425;-77
2021/04/10 03:30:10;;;;;;;6.20;2.75;;;8.00;95.60;;;;;;5048938;28;20055;-76
2021/04/10 03:32:38;;;;;;;5.70;2.92;;;8.00;95.70;;;;;;5049738;28;20028;-75
2021/04/10 03:35:06;;;;;;;6.25;2.97;;;7.90;95.90;;;;;;5045546;28;20609;-74
2021/04/10 03:37:32;;;;;;;6.97;2.92;;;7.90;96.00;;;;;;5049856;28;20192;-75
2021/04/10 03:39:58;;;;;;;8.15;2.90;;;7.80;96.00;;;;;;5046714;28;20539;-76
2021/04/10 03:42:43;;;;;;;8.60;5.07;;;7.80;96.00;;;;;;5050321;28;20052;-76
2021/04/10 03:45:17;;;;;;;6.80;3.20;;;7.80;96.20;;;;;;5047462;28;20025;-76
2021/04/10 03:47:44;;;;;;;8.13;3.17;;;7.80;96.20;;;;;;5049807;28;20116;-75
2021/04/10 03:50:10;;;;;;;5.65;3.10;;;7.70;96.30;;;;;;5045201;28;20021;-76
2021/04/10 03:52:36;;;;;;;5.57;2.90;;;7.70;96.40;;;;;;5043229;28;20604;-76
2021/04/10 03:55:03;;;;;;;7.10;3.50;;;7.70;96.40;;;;;;5042095;28;20100;-76
2021/04/10 03:57:29;;;;;;;6.25;3.53;;;7.70;96.50;;;;;;5050256;28;20059;-75
2021/04/10 03:59:54;;;;;;;6.78;3.53;;;7.70;96.70;;;;;;5048914;28;20025;-77
2021/04/10 04:02:20;;;;;;;8.77;3.80;;;7.60;96.70;;;;;;5049760;28;20100;-75
2021/04/10 04:04:45;;;;;;;7.63;3.30;;;7.70;96.80;;;;;;5049587;28;20033;-75
2021/04/10 04:07:11;;;;;;;6.72;3.35;;;7.70;96.70;;;;;;5046684;28;20033;-76
2021/04/10 04:09:37;;;;;;;6.35;3.30;;;7.80;96.60;;;;;;5048461;28;20941;-75
2021/04/10 04:12:04;;;;;;;6.28;3.22;;;7.80;96.60;;;;;;5029197;28;20050;-76
2021/04/10 04:14:29;;;;;;;7.03;2.83;;;7.90;96.60;;;;;;5046685;28;20040;-76
2021/04/10 04:16:55;;;;;;;6.95;3.60;;;7.80;96.50;;;;;;5050388;28;20059;-75
2021/04/10 04:19:20;;;;;;;8.90;3.50;;;7.90;96.70;;;;;;5049027;28;20040;-75
2021/04/10 04:21:46;;;;;;;6.80;3.20;;;7.80;96.80;;;;;;5049302;28;20037;-76
2021/04/10 04:24:12;;;;;;;5.40;3.00;;;7.80;96.80;;;;;;5049540;28;20462;-76
2021/04/10 04:26:37;;;;;;;8.95;3.47;;;7.80;96.80;;;;;;5031557;28;20032;-78
2021/04/10 04:29:03;;;;;;;7.78;3.47;;;7.80;96.90;;;;;;5048160;28;20048;-76
2021/04/10 04:31:28;;;;;;;7.07;3.40;;;7.80;96.90;;;;;;5045691;28;20411;-77
2021/04/10 04:33:54;;;;;;;6.07;2.78;;;7.80;96.90;;;;;;5049695;28;20060;-77
2021/04/10 04:36:19;;;;;;;5.80;3.08;;;7.70;97.10;;;;;;5048882;28;20020;-75
2021/04/10 04:38:45;;;;;;;5.70;2.97;;;7.80;97.10;;;;;;5049534;28;20040;-77
2021/04/10 04:41:11;;;;;;;6.90;3.10;;;7.70;97.30;;;;;;5048362;28;20032;-76
2021/04/10 04:43:36;;;;;;;5.90;2.90;;;7.60;97.30;;;;;;5050208;28;20041;-76
2021/04/10 04:46:02;;;;;;;5.82;2.90;;;7.60;97.30;;;;;;5045687;28;20032;-75
2021/04/10 04:48:27;;;;;;;7.30;2.92;;;7.70;97.40;;;;;;5047965;28;20132;-75
2021/04/10 04:50:53;;;;;;;7.75;3.30;;;7.70;97.40;;;;;;5048338;28;20032;-75
2021/04/10 04:53:18;;;;;;;7.18;3.33;;;7.70;97.40;;;;;;5043033;28;20037;-76
2021/04/10 04:55:44;;;;;;;5.10;2.88;;;7.60;97.50;;;;;;5049713;28;20025;-76
2021/04/10 04:58:09;;;;;;;5.38;3.58;;;7.70;97.60;;;;;;5045678;28;20033;-77
2021/04/10 05:00:35;;;;;;;5.10;2.95;;;7.70;97.60;;;;;;5048226;28;20037;-77
2021/04/10 05:03:01;;;;;;;5.75;2.75;;;7.70;97.70;;;;;;5048996;28;20047;-76
2021/04/10 05:05:27;;;;;;;9.55;3.42;;;7.70;97.70;;;;;;5046354;28;20139;-76
2021/04/10 05:07:52;;;;;;;7.40;2.90;;;7.70;97.70;;;;;;5047176;28;20033;-76
2021/04/10 05:10:18;;;;;;;6.40;2.60;;;7.70;97.70;;;;;;5048053;28;20127;-76
2021/04/10 05:12:43;;;;;;;7.15;2.95;;;7.70;97.70;;;;;;5049151;28;20025;-75
2021/04/10 05:15:09;;;;;;;7.28;3.05;;;7.70;97.60;;;;;;5044413;28;20029;-77
2021/04/10 05:17:35;;;;;;;7.97;3.10;;;7.80;97.80;;;;;;5047815;28;20043;-75
2021/04/10 05:20:00;;;;;;;8.05;2.70;;;7.80;97.70;;;;;;5044769;28;20025;-77
2021/04/10 05:22:26;;;;;;;5.60;3.05;;;7.80;97.80;;;;;;5048002;28;20029;-76
2021/04/10 05:24:52;;;;;;;8.80;3.08;;;7.80;97.80;;;;;;5046945;28;20913;-77
2021/04/10 05:27:17;;;;;;;6.78;2.72;;;7.80;97.80;;;;;;5046202;28;20151;-75
2021/04/10 05:29:43;;;;;;;4.28;2.58;;;7.80;97.80;;;;;;5043786;28;20033;-77
2021/04/10 05:32:08;;;;;;;7.68;2.67;;;7.90;97.80;;;;;;5045106;28;20435;-77
2021/04/10 05:34:36;;;;;;;6.60;2.70;;;8.00;97.70;;;;;;5044801;28;20025;-78
2021/04/10 05:37:02;;;;;;;6.90;2.88;;;8.00;97.60;;;;;;5044755;28;20033;-77
2021/04/10 05:39:27;;;;;;;6.70;2.92;;;8.20;97.60;;;;;;5047804;28;20047;-78
2021/04/10 05:41:53;;;;;;;7.95;2.90;;;8.20;97.90;;;;;;5047813;28;20506;-77
2021/04/10 05:44:19;;;;;;;7.97;3.38;;;8.40;97.50;;;;;;5043955;28;20045;-78
2021/04/10 05:46:44;;;;;;;5.75;2.85;;;8.70;97.30;;;;;;5046855;28;20021;-77
2021/04/10 05:49:10;;;;;;;7.60;3.15;;;9.00;97.00;;;;;;5048071;28;20144;-78
2021/04/10 05:51:35;;;;;;;6.22;3.40;;;9.50;96.60;;;;;;5042264;28;20106;-78
2021/04/10 05:54:01;;;;;;;5.53;2.90;;;9.80;96.00;;;;;;5042004;28;20033;-78
2021/04/10 05:56:27;;;;;;;6.35;3.22;;;10.00;95.80;;;;;;5047403;28;20104;-76
2021/04/10 05:58:52;;;;;;;8.00;3.30;;;10.10;96.00;;;;;;5046003;28;20032;-77
2021/04/10 06:01:18;;;;;;;6.88;2.83;;;10.20;95.40;;;;;;5046527;28;20040;-77
2021/04/10 06:03:43;;;;;;;7.05;3.30;;;10.40;95.50;;;;;;5048165;28;20041;-77
2021/04/10 06:06:11;;;;;;;6.55;3.10;;;10.30;95.50;;;;;;5046717;28;20021;-77
2021/04/10 06:08:36;;;;;;;7.72;3.30;;;10.20;95.30;;;;;;5043692;28;20039;-78
2021/04/10 06:11:02;;;;;;;4.80;2.95;;;10.40;95.40;;;;;;5047454;28;20419;-77
2021/04/10 06:13:27;;;;;;;6.97;3.50;;;10.60;95.20;;;;;;5045466;28;20104;-77
2021/04/10 06:15:53;;;;;;;7.78;2.63;;;10.80;95.10;;;;;;5046912;28;20040;-76
2021/04/10 06:18:19;;;;;;;5.38;2.70;;;11.20;94.90;;;;;;5045957;28;20033;-76
2021/04/10 06:20:44;;;;;;;6.07;2.78;;;11.50;94.30;;;;;;5047250;28;20083;-75
2021/04/10 06:23:10;;;;;;;6.18;2.90;;;11.80;93.80;;;;;;5047407;28;20764;-77
2021/04/10 06:25:35;;;;;;;13.55;4.13;;;11.70;93.70;;;;;;5044160;28;20493;-76
2021/04/10 06:28:03;;;;;;;6.95;2.90;;;11.60;93.70;;;;;;5048412;28;20387;-77
2021/04/10 06:30:29;;;;;;;5.25;2.90;;;11.50;93.90;;;;;;5047155;28;20109;-76
2021/04/10 06:32:54;;;;;;;5.60;2.75;;;11.40;94.00;;;;;;5047247;28;20123;-75
2021/04/10 06:35:20;;;;;;;6.82;2.97;;;11.30;94.10;;;;;;5047015;28;20143;-75
2021/04/10 06:37:46;;;;;;;9.27;3.42;;;11.20;94.40;;;;;;5047636;28;20045;-76
2021/04/10 06:40:12;;;;;;;9.32;2.97;;;11.00;94.50;;;;;;5043027;28;20029;-76
2021/04/10 06:42:40;;;;;;;6.25;2.70;;;11.10;94.70;;;;;;5047243;28;20079;-75
2021/04/10 06:45:06;;;;;;;7.00;2.65;;;11.00;94.50;;;;;;5046836;28;20111;-78
2021/04/10 06:47:33;;;;;;;7.20;2.67;;;10.80;94.60;;;;;;5030274;28;20037;-79
2021/04/10 06:50:00;;;;;;;7.55;3.17;;;10.80;95.00;;;;;;5044432;28;20044;-80
2021/04/10 06:52:27;;;;;;;4.65;2.35;;;10.80;94.90;;;;;;5032152;28;20138;-79
2021/04/10 06:55:03;;;;;;;5.97;2.30;;;10.90;95.20;;;;;;5054285;28;20528;-81
2021/04/10 06:57:39;;;;;;;7.45;2.85;;;10.90;94.90;;;;;;5048639;28;20465;-81
2021/04/10 07:00:09;;;;;;;12.35;3.30;;;10.90;95.00;;;;;;5045497;28;20527;-79
2021/04/10 07:02:37;;;;;;;7.95;2.80;;;11.00;94.90;;;;;;5046200;28;20392;-80
2021/04/10 07:05:03;;;;;;;3.88;2.05;;;11.10;95.00;;;;;;5047023;28;20040;-84
2021/04/10 07:07:29;;;;;;;7.10;2.13;;;11.20;95.00;;;;;;5029204;28;20052;-82
2021/04/10 07:09:55;;;;;;;4.35;2.03;;;11.40;95.30;;;;;;5027883;28;20110;-86
2021/04/10 07:12:21;;;;;;;5.32;2.30;;;11.50;95.40;;;;;;5025450;28;20041;-83
2021/04/10 07:14:46;;;;;;;4.22;1.98;;;11.70;94.80;;;;;;5034340;28;20049;-82
2021/04/10 07:17:13;;;;;;;7.15;2.20;;;11.90;94.70;;;;;;5034467;28;20056;-77
2021/04/10 07:19:39;;;;;;;6.78;2.65;;;12.10;95.00;;;;;;5046760;28;20163;-81
2021/04/10 07:22:13;;;;;;;6.53;2.00;;;12.20;94.20;;;;;;5051742;28;20033;-80
2021/04/10 07:24:44;;;;;;;5.10;2.03;;;12.50;94.20;;;;;;5052576;28;20037;-79
2021/04/10 07:27:22;;;;;;;4.15;1.77;;;12.70;94.00;;;;;;5047605;28;20032;-78
2021/04/10 07:29:49;;;;;;;2.92;1.50;;;12.60;93.80;;;;;;5046239;28;20106;-80
2021/04/10 07:32:38;;;;;;;4.78;1.60;;;12.60;93.80;;;;;;5049319;28;20017;-78
2021/04/10 07:35:09;;;;;;;5.40;1.90;;;12.60;93.80;;;;;;5049817;28;20025;-80
2021/04/10 07:37:43;;;;;;;5.80;1.63;;;12.70;94.00;;;;;;5045385;28;20438;-77
2021/04/10 07:40:17;;;;;;;4.40;1.70;;;12.70;94.10;;;;;;5027803;28;20501;-78
2021/04/10 07:42:45;;;;;;;3.92;1.83;;;12.80;94.00;;;;;;5051212;28;20123;-81
2021/04/10 07:45:32;;;;;;;5.57;1.63;;;12.80;94.10;;;;;;5051479;28;20091;-78
2021/04/10 07:48:10;;;;;;;2.40;1.50;;;12.80;94.20;;;;;;5047025;28;20033;-78
2021/04/10 07:50:37;;;;;;;3.97;1.80;;;12.80;94.30;;;;;;5046009;28;20087;-77
2021/04/10 07:53:25;;;;;;;4.78;1.52;;;12.60;94.20;;;;;;5052472;28;20033;-77
2021/04/10 07:55:53;;;;;;;4.18;1.80;;;12.70;94.80;;;;;;5045768;28;20047;-78
2021/04/10 07:58:22;;;;;;;3.97;2.03;;;12.70;94.40;;;;;;5052276;28;20055;-79
2021/04/10 08:00:49;;;;;;;7.50;1.80;;;12.60;94.50;;;;;;5050139;28;20028;-78
2021/04/10 08:03:29;;;;;;;4.68;1.65;;;12.60;94.60;;;;;;5050360;28;20033;-79
2021/04/10 08:06:04;;;;;;;5.53;1.80;;;12.70;94.30;;;;;;5045832;28;20052;-78
2021/04/10 08:08:30;;;;;;;5.60;1.90;;;12.70;94.70;;;;;;5050325;28;20021;-78
2021/04/10 08:11:06;;;;;;;5.82;2.08;;;12.90;95.00;;;;;;5049763;28;20386;-78
2021/04/10 08:13:33;;;;;;;3.95;2.05;;;12.90;94.70;;;;;;5049354;28;20017;-78
2021/04/10 08:16:18;;;;;;;3.80;1.60;;;13.00;94.60;;;;;;5049365;28;20013;-77
2021/04/10 08:18:54;;;;;;;3.58;1.50;;;13.10;94.10;;;;;;5050034;28;20029;-78
2021/04/10 08:21:38;;;;;;;3.72;1.80;;;13.20;94.70;;;;;;5049741;28;20033;-78
2021/04/10 08:24:30;;;;;;;4.43;1.63;;;13.30;94.60;;;;;;5048460;28;20069;-78
2021/04/10 08:27:03;;;;;;;4.28;1.65;;;13.30;94.50;;;;;;5049071;28;20033;-83
2021/04/10 08:29:29;;;;;;;5.85;1.80;;;13.40;94.60;;;;;;5050869;28;20039;-82
2021/04/10 08:31:56;;;;;;;3.55;1.60;;;13.50;94.20;;;;;;5049728;28;20033;-83
2021/04/10 08:34:22;;;;;;;3.58;2.15;;;13.40;94.10;;;;;;5051459;28;20468;-79
2021/04/10 08:36:56;;;;;;;5.45;1.98;;;13.30;94.30;;;;;;5049188;28;20029;-81
2021/04/10 08:39:27;;;;;;;5.72;1.90;;;13.10;94.30;;;;;;5047617;28;20089;-85
2021/04/10 08:41:56;;;;;;;6.40;2.20;;;13.00;94.30;;;;;;5044528;28;20024;-83
2021/04/10 08:44:26;;;;;;;3.58;1.58;;;13.00;94.40;;;;;;5047331;28;20507;-82
2021/04/10 08:46:53;;;;;;;4.82;1.92;;;13.10;94.40;;;;;;5043537;28;20025;-85
2021/04/10 08:49:19;;;;;;;4.38;1.70;;;13.30;94.70;;;;;;5032217;28;20041;-83
2021/04/10 08:51:49;;;;;;;5.53;1.60;;;13.10;94.20;;;;;;5045302;28;20227;-85
2021/04/10 08:54:16;;;;;;;;;;;13.20;94.40;;;;;;5032843;28;20042;-84
2021/04/10 08:56:42;;;;;;;5.13;1.90;;;13.30;94.30;;;;;;5049877;28;20026;-83
2021/04/10 08:59:09;;;;;;;3.38;1.48;;;13.50;94.80;;;;;;5030252;28;20045;-82
2021/04/10 09:01:37;;;;;;;6.03;1.60;;;13.60;94.30;;;;;;5050494;28;20188;-82
2021/04/10 09:04:03;;;;;;;3.38;1.40;;;13.70;94.30;;;;;;5033239;28;20045;-83
2021/04/10 09:06:31;;;;;;;3.80;1.50;;;14.00;94.20;;;;;;5031042;28;20045;-82
2021/04/10 09:09:12;;;;;;;4.28;1.50;;;14.10;93.50;;;;;;5048786;28;20040;-82
2021/04/10 09:11:39;;;;;;;4.55;1.60;;;14.20;93.70;;;;;;5028873;28;20033;-85
2021/04/10 09:14:05;;;;;;;4.80;1.50;;;14.50;93.50;;;;;;5048311;28;20029;-81
2021/04/10 09:16:43;;;;;;;5.70;1.77;;;14.60;93.20;;;;;;5032128;28;20024;-78
2021/04/10 09:19:11;;;;;;;7.82;1.73;;;14.50;93.30;;;;;;5027499;28;20044;-83
2021/04/10 09:21:43;;;;;;;2.90;1.55;;;14.80;93.30;;;;;;5026157;28;20029;-82
2021/04/10 09:24:31;;;;;;;4.97;1.60;;;15.00;93.00;;;;;;5045068;28;20473;-83
2021/04/10 09:27:02;;;;;;;6.28;1.52;;;15.00;93.10;;;;;;5044123;28;20091;-81
2021/04/10 09:29:30;;;;;;;5.35;2.05;;;14.80;92.80;;;;;;5041669;28;20064;-84
2021/04/10 09:31:58;;;;;;;6.35;2.30;;;14.90;93.10;;;;;;5027535;28;20029;-81
2021/04/10 09:34:42;;;;;;;4.32;1.80;;;14.70;92.90;;;;;;5042422;28;20025;-82
2021/04/10 09:37:12;;;;;;;4.72;1.90;;;14.80;93.00;;;;;;5044551;28;20025;-79
2021/04/10 09:39:56;;;;;;;7.47;2.17;;;14.90;93.50;;;;;;5053111;28;20380;-80
2021/04/10 09:42:34;;;;;;;4.55;2.42;;;15.00;93.00;;;;;;5045827;28;20029;-82
2021/04/10 09:45:16;;;;;;;6.65;2.33;;;15.20;93.00;;;;;;5032715;28;20112;-80
2021/04/10 09:48:06;;;;;;;4.15;2.17;;;15.30;93.20;;;;;;5054077;28;20451;-81
2021/04/10 09:50:37;;;;;;;3.58;1.80;;;15.10;92.60;;;;;;5049147;28;20025;-79
2021/04/10 09:53:05;;;;;;;4.75;2.05;;;14.90;92.40;;;;;;5031489;28;20025;-81
2021/04/10 09:55:33;;;;;;;3.30;1.80;;;14.80;93.10;;;;;;5049085;28;20381;-81
2021/04/10 09:58:02;;;;;;;5.10;2.00;;;15.10;93.40;;;;;;5048775;28;20013;-80
2021/04/10 10:00:42;;;;;;;2.63;1.65;;;15.40;92.90;;;;;;5048999;28;20025;-85
2021/04/10 10:03:09;;;;;;;4.35;2.20;;;15.50;93.80;;;;;;5046118;28;20037;-82
2021/04/10 10:05:43;;;;;;;6.03;2.50;;;15.50;92.70;;;;;;5049527;28;20082;-80
2021/04/10 10:08:16;;;;;;;6.88;2.08;;;15.00;93.20;;;;;;5051502;28;20032;-76
2021/04/10 10:10:47;;;;;;;3.78;2.00;;;15.20;92.80;;;;;;5048986;28;20029;-77
2021/04/10 10:13:16;;;;;;;3.60;2.13;;;15.20;92.90;;;;;;5047756;28;20029;-78
2021/04/10 10:15:46;;;;;;;7.35;2.50;;;15.10;92.70;;;;;;5047748;28;20040;-77
2021/04/10 10:18:26;;;;;;;8.95;2.40;;;15.20;93.10;;;;;;5044924;28;20029;-79
2021/04/10 10:21:03;;;;;;;;;;;15.40;93.30;;;;;;5046802;28;20035;-80
2021/04/10 10:23:40;;;;;;;5.22;2.10;;;15.50;92.80;;;;;;5045124;28;19916;-78
2021/04/10 10:26:14;;;;;;;6.72;2.47;;;15.40;92.70;;;;;;5047401;28;20044;-80
2021/04/10 10:28:42;;;;;;;4.40;2.22;;;15.10;93.80;;;;;;5049181;28;20033;-79
2021/04/10 10:31:10;;;;;;;6.72;1.98;;;15.30;93.20;;;;;;5048597;28;20021;-80
2021/04/10 10:33:37;;;;;;;6.78;2.38;;;15.40;92.80;;;;;;5048541;28;20036;-80
2021/04/10 10:36:03;;;;;;;5.75;2.40;;;15.30;93.00;;;;;;5030621;28;20120;-80
2021/04/10 10:38:38;;;;;;;7.00;2.17;;;15.30;93.20;;;;;;5048065;28;20067;-79
2021/04/10 10:41:06;;;;;;;4.20;2.22;;;15.20;93.20;;;;;;5047101;28;20032;-79
2021/04/10 10:43:32;;;;;;;5.55;2.20;;;15.20;92.90;;;;;;5048226;28;20064;-80
2021/04/10 10:46:06;;;;;;;4.40;2.20;;;15.10;93.00;;;;;;5047339;28;20033;-81
2021/04/10 10:48:34;;;;;;;6.53;2.85;;;15.10;93.20;;;;;;5050216;28;20048;-81
2021/04/10 10:50:59;;;;;;;5.38;2.35;;;15.10;92.80;;;;;;5051223;28;20025;-79
2021/04/10 10:53:27;;;;;;;6.10;2.35;;;15.20;93.00;;;;;;5052003;28;20059;-79
2021/04/10 10:56:26;;;;;;;5.55;2.20;;;15.30;93.30;;;;;;5030764;28;20021;-80
2021/04/10 10:58:52;;;;;;;6.18;2.28;;;15.40;93.20;;;;;;5029566;28;20055;-77
2021/04/10 11:01:27;;;;;;;4.75;2.45;;;15.40;92.60;;;;;;5050928;28;20044;-81
2021/04/10 11:03:57;;;;;;;4.78;2.40;;;15.20;92.80;;;;;;5051448;28;20047;-81
2021/04/10 11:06:26;;;;;;;6.50;2.55;;;14.90;93.10;;;;;;5052359;28;20029;-80
2021/04/10 11:08:52;;;;;;;5.20;2.83;;;15.20;93.10;;;;;;5047493;28;20048;-79
2021/04/10 11:11:22;;;;;;;3.67;1.90;;;15.10;92.90;;;;;;5057093;28;20123;-78
2021/04/10 11:13:48;;;;;;;4.55;2.10;;;15.20;93.30;;;;;;5052601;28;20060;-79
2021/04/10 11:16:16;;;;;;;5.78;2.47;;;15.60;93.50;;;;;;5033858;28;20033;-81
2021/04/10 11:18:42;;;;;;;4.80;2.60;;;15.70;93.40;;;;;;5051733;28;20032;-79
2021/04/10 11:21:21;;;;;;;5.03;2.33;;;15.80;92.70;;;;;;5051420;28;20487;-78
2021/04/10 11:23:57;;;;;;;6.30;2.17;;;15.70;92.60;;;;;;5047882;28;20033;-79
2021/04/10 11:26:53;;;;;;;6.53;2.60;;;15.40;93.00;;;;;;5043837;28;20083;-79
2021/04/10 11:29:34;;;;;;;7.30;2.28;;;15.60;92.70;;;;;;5047116;28;20035;-78
2021/04/10 11:32:20;;;;;;;5.93;2.35;;;15.60;92.80;;;;;;5029996;28;20025;-77
2021/04/10 11:34:46;;;;;;;6.55;2.83;;;16.00;93.20;;;;;;5042651;28;20033;-81
2021/04/10 11:37:13;;;;;;;5.85;2.75;;;16.00;92.40;;;;;;5045440;28;20629;-76
2021/04/10 11:39:55;;;;;;;4.93;2.85;;;16.10;92.10;;;;;;5045625;28;20032;-79
2021/04/10 11:42:57;;;;;;;6.82;2.63;;;15.70;91.90;;;;;;5028081;28;20032;-78
2021/04/10 11:45:25;;;;;;;6.50;2.45;;;15.70;92.30;;;;;;4977759;28;20038;-77
2021/04/10 11:48:03;;;;;;;6.20;2.55;;;15.60;92.10;;;;;;4974688;28;20518;-77
2021/04/10 11:50:39;;;;;;;4.82;2.38;;;15.30;91.90;;;;;;4974782;28;20150;-79
2021/04/10 11:53:16;;;;;;;6.25;2.80;;;15.30;92.10;;;;;;4969495;28;20039;-80
2021/04/10 11:55:44;;;;;;;5.72;2.55;;;15.60;92.40;;;;;;4969950;28;20049;-78
2021/04/10 11:58:09;;;;;;;5.97;2.42;;;15.60;92.50;;;;;;4968567;28;20070;-79
2021/04/10 12:00:35;;;;;;;8.05;2.78;;;15.90;92.50;;;;;;4969608;28;20066;-79
2021/04/10 12:03:11;;;;;;;5.15;2.70;;;15.90;92.30;;;;;;4969225;28;20526;-81
2021/04/10 12:05:41;;;;;;;8.50;2.45;;;16.00;92.60;;;;;;4970345;28;20597;-78
2021/04/10 12:08:10;;;;;;;5.72;2.67;;;15.90;92.20;;;;;;4968745;28;20035;-78
2021/04/10 12:10:47;;;;;;;5.88;2.50;;;15.60;92.10;;;;;;4969847;28;20486;-80
2021/04/10 12:13:13;;;;;;;5.70;2.65;;;15.60;92.00;;;;;;4968707;28;20502;-79
2021/04/10 12:15:40;;;;;;;6.55;2.85;;;15.60;92.20;;;;;;4957218;28;20054;-79
2021/04/10 12:18:09;;;;;;;5.53;3.00;;;15.60;92.50;;;;;;4968851;28;20054;-81
2021/04/10 12:20:36;;;;;;;5.47;2.57;;;15.80;91.80;;;;;;4968723;28;20027;-78
2021/04/10 12:23:02;;;;;;;5.93;2.70;;;16.00;92.00;;;;;;5039369;28;20330;-78
2021/04/10 12:25:28;;;;;;;6.88;2.60;;;16.30;92.60;;;;;;5048414;28;20057;-79
2021/04/10 12:27:54;;;;;;;4.85;2.60;;;16.50;91.50;;;;;;5049762;28;20031;-78
2021/04/10 12:30:19;;;;;;;4.25;2.60;;;15.80;91.30;;;;;;5049865;28;20542;-79
2021/04/10 12:32:45;;;;;;;3.78;2.45;;;15.90;91.60;;;;;;5047797;28;20025;-80
2021/04/10 12:35:11;;;;;;;7.13;2.63;;;16.00;91.50;;;;;;5049447;28;20032;-80
2021/04/10 12:37:37;;;;;;;4.15;2.20;;;16.20;90.80;;;;;;5049043;28;20025;-78
2021/04/10 12:40:05;;;;;;;6.63;2.90;;;16.50;91.50;;;;;;5048957;28;20029;-78
2021/04/10 12:42:31;;;;;;;6.47;3.00;;;16.60;91.20;;;;;;5047966;28;20033;-77
2021/04/10 12:44:57;;;;;;;6.60;2.85;;;16.60;91.40;;;;;;5050163;28;20078;-78
2021/04/10 12:47:22;;;;;;;4.90;2.67;;;16.20;90.50;;;;;;5050287;28;20798;-77
2021/04/10 12:49:48;;;;;;;7.60;3.40;;;16.10;91.00;;;;;;5031601;28;20520;-77
2021/04/10 12:52:14;;;;;;;6.32;2.50;;;16.50;91.30;;;;;;5049795;28;20029;-78
2021/04/10 12:54:40;;;;;;;6.93;2.88;;;16.60;90.50;;;;;;5038467;28;20055;-77
2021/04/10 12:57:06;;;;;;;8.82;3.30;;;16.70;91.00;;;;;;5049050;28;21491;-77
2021/04/10 12:59:32;;;;;;;7.85;2.63;;;16.60;90.40;;;;;;5030994;28;20021;-79
2021/04/10 13:01:58;;;;;;;6.32;2.60;;;16.60;90.80;;;;;;5047462;28;20029;-77
2021/04/10 13:04:24;;;;;;;5.10;2.90;;;16.50;90.80;;;;;;5043511;28;20043;-78